sensor_id;sensor_type;location;lat;lon;timestamp;P1;durP1;ratioP1;P2;durP2;ratioP2
5587;SDS011;2816;49.778;9.986;2023-06-26T00:01:52;8.00;;;5.60;;
5587;SDS011;2816;49.778;9.986;2023-06-26T00:04:18;5.90;;;5.30;;
5587;SDS011;2816;49.778;9.986;2023-06-26T00:06:45;7.17;;;5.87;;
5587;SDS011;2816;49.778;9.986;2023-06-26T00:09:12;7.10;;;5.40;;
5587;SDS011;2816;49.778;9.986;2023-06-26T00:11:39;8.60;;;5.87;;
5587;SDS011;2816;49.778;9.986;2023-06-26T00:14:07;6.20;;;5.60;;
5587;SDS011;2816;49.778;9.986;2023-06-26T00:16:34;5.93;;;5.40;;
5587;SDS011;2816;49.778;9.986;2023-06-26T00:19:02;9.30;;;6.10;;
5587;SDS011;2816;49.778;9.986;2023-06-26T00:21:29;5.83;;;5.23;;
5587;SDS011;2816;49.778;9.986;2023-06-26T00:23:56;6.30;;;5.70;;
5587;SDS011;2816;49.778;9.986;2023-06-26T00:26:23;5.93;;;5.10;;
5587;SDS011;2816;49.778;9.986;2023-06-26T00:28:50;7.00;;;5.43;;
5587;SDS011;2816;49.778;9.986;2023-06-26T00:31:18;5.97;;;5.30;;
5587;SDS011;2816;49.778;9.986;2023-06-26T00:33:45;8.53;;;5.20;;
5587;SDS011;2816;49.778;9.986;2023-06-26T00:36:12;6.90;;;5.70;;
5587;SDS011;2816;49.778;9.986;2023-06-26T00:38:39;5.73;;;5.17;;
5587;SDS011;2816;49.778;9.986;2023-06-26T00:41:06;6.93;;;5.00;;
5587;SDS011;2816;49.778;9.986;2023-06-26T00:43:37;6.37;;;5.60;;
5587;SDS011;2816;49.778;9.986;2023-06-26T00:46:05;7.90;;;5.90;;
5587;SDS011;2816;49.778;9.986;2023-06-26T00:48:36;7.47;;;5.67;;
5587;SDS011;2816;49.778;9.986;2023-06-26T00:51:04;7.90;;;5.30;;
5587;SDS011;2816;49.778;9.986;2023-06-26T00:53:31;6.70;;;5.40;;
5587;SDS011;2816;49.778;9.986;2023-06-26T00:55:59;7.43;;;5.53;;
5587;SDS011;2816;49.778;9.986;2023-06-26T00:58:27;7.03;;;6.27;;
5587;SDS011;2816;49.778;9.986;2023-06-26T01:00:54;8.23;;;5.90;;
5587;SDS011;2816;49.778;9.986;2023-06-26T01:03:21;7.27;;;5.80;;
5587;SDS011;2816;49.778;9.986;2023-06-26T01:05:50;7.90;;;5.97;;
5587;SDS011;2816;49.778;9.986;2023-06-26T01:08:18;7.87;;;5.73;;
5587;SDS011;2816;49.778;9.986;2023-06-26T01:10:46;9.23;;;5.70;;
5587;SDS011;2816;49.778;9.986;2023-06-26T01:13:13;7.03;;;5.73;;
5587;SDS011;2816;49.778;9.986;2023-06-26T01:15:42;6.10;;;5.50;;
5587;SDS011;2816;49.778;9.986;2023-06-26T01:18:09;6.87;;;6.17;;
5587;SDS011;2816;49.778;9.986;2023-06-26T01:20:36;7.77;;;6.30;;
5587;SDS011;2816;49.778;9.986;2023-06-26T01:23:12;6.00;;;5.27;;
5587;SDS011;2816;49.778;9.986;2023-06-26T01:25:46;7.70;;;5.50;;
5587;SDS011;2816;49.778;9.986;2023-06-26T01:28:24;7.37;;;5.90;;
5587;SDS011;2816;49.778;9.986;2023-06-26T01:30:52;6.17;;;5.30;;
5587;SDS011;2816;49.778;9.986;2023-06-26T01:33:20;7.03;;;5.57;;
5587;SDS011;2816;49.778;9.986;2023-06-26T01:35:48;6.10;;;5.50;;
5587;SDS011;2816;49.778;9.986;2023-06-26T01:38:16;7.10;;;5.80;;
5587;SDS011;2816;49.778;9.986;2023-06-26T01:40:44;7.60;;;5.53;;
5587;SDS011;2816;49.778;9.986;2023-06-26T01:43:14;6.37;;;5.77;;
5587;SDS011;2816;49.778;9.986;2023-06-26T01:45:47;7.83;;;6.20;;
5587;SDS011;2816;49.778;9.986;2023-06-26T01:48:16;9.37;;;6.40;;
5587;SDS011;2816;49.778;9.986;2023-06-26T01:50:49;7.93;;;5.93;;
5587;SDS011;2816;49.778;9.986;2023-06-26T01:53:19;7.23;;;5.90;;
5587;SDS011;2816;49.778;9.986;2023-06-26T01:55:50;7.03;;;5.70;;
5587;SDS011;2816;49.778;9.986;2023-06-26T01:58:20;6.63;;;5.70;;
5587;SDS011;2816;49.778;9.986;2023-06-26T02:00:51;7.83;;;5.80;;
5587;SDS011;2816;49.778;9.986;2023-06-26T02:03:18;6.70;;;6.00;;
5587;SDS011;2816;49.778;9.986;2023-06-26T02:05:45;6.53;;;5.83;;
5587;SDS011;2816;49.778;9.986;2023-06-26T02:08:13;6.77;;;5.63;;
5587;SDS011;2816;49.778;9.986;2023-06-26T02:10:40;7.73;;;6.13;;
5587;SDS011;2816;49.778;9.986;2023-06-26T02:13:07;6.87;;;6.00;;
5587;SDS011;2816;49.778;9.986;2023-06-26T02:15:34;6.73;;;5.77;;
5587;SDS011;2816;49.778;9.986;2023-06-26T02:18:03;6.30;;;5.70;;
5587;SDS011;2816;49.778;9.986;2023-06-26T02:20:29;7.40;;;6.07;;
5587;SDS011;2816;49.778;9.986;2023-06-26T02:22:58;6.63;;;5.63;;
5587;SDS011;2816;49.778;9.986;2023-06-26T02:25:24;6.10;;;5.40;;
5587;SDS011;2816;49.778;9.986;2023-06-26T02:27:51;8.30;;;6.23;;
5587;SDS011;2816;49.778;9.986;2023-06-26T02:30:18;7.67;;;6.00;;
5587;SDS011;2816;49.778;9.986;2023-06-26T02:32:45;8.20;;;5.97;;
5587;SDS011;2816;49.778;9.986;2023-06-26T02:35:13;9.30;;;6.63;;
5587;SDS011;2816;49.778;9.986;2023-06-26T02:37:40;9.40;;;6.47;;
5587;SDS011;2816;49.778;9.986;2023-06-26T02:40:08;6.73;;;5.57;;
5587;SDS011;2816;49.778;9.986;2023-06-26T02:42:35;7.10;;;5.90;;
5587;SDS011;2816;49.778;9.986;2023-06-26T02:45:03;7.40;;;6.03;;
5587;SDS011;2816;49.778;9.986;2023-06-26T02:47:30;8.20;;;6.27;;
5587;SDS011;2816;49.778;9.986;2023-06-26T02:49:57;6.83;;;5.97;;
5587;SDS011;2816;49.778;9.986;2023-06-26T02:52:25;8.83;;;6.73;;
5587;SDS011;2816;49.778;9.986;2023-06-26T02:54:54;6.10;;;5.50;;
5587;SDS011;2816;49.778;9.986;2023-06-26T02:57:21;6.90;;;6.30;;
5587;SDS011;2816;49.778;9.986;2023-06-26T02:59:48;6.70;;;6.00;;
5587;SDS011;2816;49.778;9.986;2023-06-26T03:02:15;8.17;;;6.23;;
5587;SDS011;2816;49.778;9.986;2023-06-26T03:04:41;8.00;;;6.30;;
5587;SDS011;2816;49.778;9.986;2023-06-26T03:07:08;6.80;;;6.10;;
5587;SDS011;2816;49.778;9.986;2023-06-26T03:09:36;7.80;;;5.73;;
5587;SDS011;2816;49.778;9.986;2023-06-26T03:12:04;8.07;;;6.17;;
5587;SDS011;2816;49.778;9.986;2023-06-26T03:14:31;6.90;;;6.07;;
5587;SDS011;2816;49.778;9.986;2023-06-26T03:16:58;8.67;;;6.30;;
5587;SDS011;2816;49.778;9.986;2023-06-26T03:19:28;9.80;;;8.00;;
5587;SDS011;2816;49.778;9.986;2023-06-26T03:21:55;9.00;;;7.00;;
5587;SDS011;2816;49.778;9.986;2023-06-26T03:24:22;8.13;;;6.50;;
5587;SDS011;2816;49.778;9.986;2023-06-26T03:26:50;6.70;;;6.03;;
5587;SDS011;2816;49.778;9.986;2023-06-26T03:29:17;7.33;;;6.33;;
5587;SDS011;2816;49.778;9.986;2023-06-26T03:31:44;8.00;;;6.60;;
5587;SDS011;2816;49.778;9.986;2023-06-26T03:34:11;7.40;;;5.80;;
5587;SDS011;2816;49.778;9.986;2023-06-26T03:36:38;7.60;;;5.87;;
5587;SDS011;2816;49.778;9.986;2023-06-26T03:39:05;6.80;;;6.00;;
5587;SDS011;2816;49.778;9.986;2023-06-26T03:41:31;8.83;;;6.43;;
5587;SDS011;2816;49.778;9.986;2023-06-26T03:44:01;8.97;;;6.57;;
5587;SDS011;2816;49.778;9.986;2023-06-26T03:46:28;6.97;;;5.80;;
5587;SDS011;2816;49.778;9.986;2023-06-26T03:48:55;6.50;;;5.87;;
5587;SDS011;2816;49.778;9.986;2023-06-26T03:51:22;9.80;;;6.70;;
5587;SDS011;2816;49.778;9.986;2023-06-26T03:53:49;7.73;;;6.30;;
5587;SDS011;2816;49.778;9.986;2023-06-26T03:56:15;7.60;;;6.60;;
5587;SDS011;2816;49.778;9.986;2023-06-26T03:58:42;8.60;;;6.40;;
5587;SDS011;2816;49.778;9.986;2023-06-26T04:01:11;8.77;;;6.17;;
5587;SDS011;2816;49.778;9.986;2023-06-26T04:03:38;10.30;;;7.17;;
5587;SDS011;2816;49.778;9.986;2023-06-26T04:06:05;7.63;;;6.83;;
5587;SDS011;2816;49.778;9.986;2023-06-26T04:08:32;7.50;;;5.90;;
5587;SDS011;2816;49.778;9.986;2023-06-26T04:10:58;8.23;;;6.83;;
5587;SDS011;2816;49.778;9.986;2023-06-26T04:13:25;8.57;;;6.43;;
5587;SDS011;2816;49.778;9.986;2023-06-26T04:15:52;9.93;;;6.93;;
5587;SDS011;2816;49.778;9.986;2023-06-26T04:18:21;10.20;;;6.43;;
5587;SDS011;2816;49.778;9.986;2023-06-26T04:23:30;8.73;;;6.47;;
5587;SDS011;2816;49.778;9.986;2023-06-26T04:25:57;8.40;;;6.67;;
5587;SDS011;2816;49.778;9.986;2023-06-26T04:28:24;9.53;;;6.57;;
5587;SDS011;2816;49.778;9.986;2023-06-26T04:30:51;7.57;;;6.50;;
5587;SDS011;2816;49.778;9.986;2023-06-26T04:33:18;8.50;;;6.63;;
5587;SDS011;2816;49.778;9.986;2023-06-26T04:35:46;8.00;;;6.43;;
5587;SDS011;2816;49.778;9.986;2023-06-26T04:38:14;8.03;;;6.97;;
5587;SDS011;2816;49.778;9.986;2023-06-26T04:40:41;9.23;;;6.23;;
5587;SDS011;2816;49.778;9.986;2023-06-26T04:43:08;9.57;;;6.67;;
5587;SDS011;2816;49.778;9.986;2023-06-26T04:45:35;10.63;;;6.80;;
5587;SDS011;2816;49.778;9.986;2023-06-26T04:48:02;10.00;;;6.83;;
5587;SDS011;2816;49.778;9.986;2023-06-26T04:50:32;8.50;;;6.47;;
5587;SDS011;2816;49.778;9.986;2023-06-26T04:53:00;10.40;;;6.73;;
5587;SDS011;2816;49.778;9.986;2023-06-26T04:55:27;7.00;;;6.30;;
5587;SDS011;2816;49.778;9.986;2023-06-26T04:57:55;10.37;;;6.40;;
5587;SDS011;2816;49.778;9.986;2023-06-26T05:00:22;11.10;;;6.80;;
5587;SDS011;2816;49.778;9.986;2023-06-26T05:02:50;10.57;;;7.20;;
5587;SDS011;2816;49.778;9.986;2023-06-26T05:05:24;9.07;;;7.30;;
5587;SDS011;2816;49.778;9.986;2023-06-26T05:07:53;8.27;;;6.40;;
5587;SDS011;2816;49.778;9.986;2023-06-26T05:10:21;12.73;;;6.57;;
5587;SDS011;2816;49.778;9.986;2023-06-26T05:12:48;7.97;;;6.37;;
5587;SDS011;2816;49.778;9.986;2023-06-26T05:15:15;7.40;;;6.70;;
5587;SDS011;2816;49.778;9.986;2023-06-26T05:17:42;8.27;;;6.80;;
5587;SDS011;2816;49.778;9.986;2023-06-26T05:20:09;7.20;;;6.20;;
5587;SDS011;2816;49.778;9.986;2023-06-26T05:22:37;9.60;;;6.30;;
5587;SDS011;2816;49.778;9.986;2023-06-26T05:25:06;10.33;;;7.37;;
5587;SDS011;2816;49.778;9.986;2023-06-26T05:27:36;10.13;;;6.93;;
5587;SDS011;2816;49.778;9.986;2023-06-26T05:30:04;10.23;;;6.07;;
5587;SDS011;2816;49.778;9.986;2023-06-26T05:32:32;9.93;;;7.00;;
5587;SDS011;2816;49.778;9.986;2023-06-26T05:35:02;8.57;;;5.77;;
5587;SDS011;2816;49.778;9.986;2023-06-26T05:37:30;9.30;;;6.93;;
5587;SDS011;2816;49.778;9.986;2023-06-26T05:39:58;10.07;;;6.50;;
5587;SDS011;2816;49.778;9.986;2023-06-26T05:42:28;6.90;;;6.20;;
5587;SDS011;2816;49.778;9.986;2023-06-26T05:44:55;7.80;;;6.17;;
5587;SDS011;2816;49.778;9.986;2023-06-26T05:47:22;7.77;;;6.10;;
5587;SDS011;2816;49.778;9.986;2023-06-26T05:49:49;7.97;;;6.53;;
5587;SDS011;2816;49.778;9.986;2023-06-26T05:52:16;8.33;;;6.13;;
5587;SDS011;2816;49.778;9.986;2023-06-26T05:54:44;6.80;;;6.10;;
5587;SDS011;2816;49.778;9.986;2023-06-26T05:57:11;7.40;;;5.60;;
5587;SDS011;2816;49.778;9.986;2023-06-26T05:59:41;7.87;;;5.90;;
5587;SDS011;2816;49.778;9.986;2023-06-26T06:02:09;6.37;;;5.70;;
5587;SDS011;2816;49.778;9.986;2023-06-26T06:04:37;7.43;;;5.63;;
5587;SDS011;2816;49.778;9.986;2023-06-26T06:07:04;7.67;;;6.70;;
5587;SDS011;2816;49.778;9.986;2023-06-26T06:09:31;10.10;;;6.67;;
5587;SDS011;2816;49.778;9.986;2023-06-26T06:11:58;9.33;;;6.27;;
5587;SDS011;2816;49.778;9.986;2023-06-26T06:14:26;8.83;;;6.00;;
5587;SDS011;2816;49.778;9.986;2023-06-26T06:16:54;8.97;;;6.13;;
5587;SDS011;2816;49.778;9.986;2023-06-26T06:19:22;8.17;;;6.00;;
5587;SDS011;2816;49.778;9.986;2023-06-26T06:21:49;11.53;;;6.93;;
5587;SDS011;2816;49.778;9.986;2023-06-26T06:24:16;8.20;;;5.83;;
5587;SDS011;2816;49.778;9.986;2023-06-26T06:26:43;12.27;;;6.60;;
5587;SDS011;2816;49.778;9.986;2023-06-26T06:29:10;7.60;;;6.80;;
5587;SDS011;2816;49.778;9.986;2023-06-26T06:31:37;9.60;;;5.80;;
5587;SDS011;2816;49.778;9.986;2023-06-26T06:34:05;8.20;;;5.83;;
5587;SDS011;2816;49.778;9.986;2023-06-26T06:36:32;7.40;;;5.97;;
5587;SDS011;2816;49.778;9.986;2023-06-26T06:39:00;7.00;;;5.70;;
5587;SDS011;2816;49.778;9.986;2023-06-26T06:41:27;11.40;;;6.13;;
5587;SDS011;2816;49.778;9.986;2023-06-26T06:43:53;7.90;;;5.63;;
5587;SDS011;2816;49.778;9.986;2023-06-26T06:46:21;7.67;;;6.10;;
5587;SDS011;2816;49.778;9.986;2023-06-26T06:48:48;7.40;;;5.70;;
5587;SDS011;2816;49.778;9.986;2023-06-26T06:51:16;8.87;;;6.57;;
5587;SDS011;2816;49.778;9.986;2023-06-26T06:53:43;11.30;;;6.50;;
5587;SDS011;2816;49.778;9.986;2023-06-26T06:56:10;9.83;;;6.20;;
5587;SDS011;2816;49.778;9.986;2023-06-26T06:58:37;12.70;;;6.70;;
5587;SDS011;2816;49.778;9.986;2023-06-26T07:01:07;6.60;;;5.80;;
5587;SDS011;2816;49.778;9.986;2023-06-26T07:03:34;8.53;;;6.40;;
5587;SDS011;2816;49.778;9.986;2023-06-26T07:06:01;12.83;;;6.13;;
5587;SDS011;2816;49.778;9.986;2023-06-26T07:08:30;7.67;;;5.73;;
5587;SDS011;2816;49.778;9.986;2023-06-26T07:10:57;9.60;;;5.83;;
5587;SDS011;2816;49.778;9.986;2023-06-26T07:13:24;11.60;;;6.23;;
5587;SDS011;2816;49.778;9.986;2023-06-26T07:15:51;6.30;;;5.70;;
5587;SDS011;2816;49.778;9.986;2023-06-26T07:18:18;12.03;;;6.30;;
5587;SDS011;2816;49.778;9.986;2023-06-26T07:20:44;6.47;;;5.77;;
5587;SDS011;2816;49.778;9.986;2023-06-26T07:23:11;8.20;;;6.07;;
5587;SDS011;2816;49.778;9.986;2023-06-26T07:25:40;12.80;;;7.10;;
5587;SDS011;2816;49.778;9.986;2023-06-26T07:28:09;9.30;;;5.87;;
5587;SDS011;2816;49.778;9.986;2023-06-26T07:30:37;9.07;;;6.70;;
5587;SDS011;2816;49.778;9.986;2023-06-26T07:33:04;16.63;;;7.13;;
5587;SDS011;2816;49.778;9.986;2023-06-26T07:35:30;6.93;;;6.00;;
5587;SDS011;2816;49.778;9.986;2023-06-26T07:37:57;6.60;;;5.90;;
5587;SDS011;2816;49.778;9.986;2023-06-26T07:40:25;9.70;;;6.87;;
5587;SDS011;2816;49.778;9.986;2023-06-26T07:42:53;13.23;;;5.83;;
5587;SDS011;2816;49.778;9.986;2023-06-26T07:45:20;10.27;;;6.70;;
5587;SDS011;2816;49.778;9.986;2023-06-26T07:47:47;17.80;;;7.00;;
5587;SDS011;2816;49.778;9.986;2023-06-26T07:50:14;9.73;;;6.80;;
5587;SDS011;2816;49.778;9.986;2023-06-26T07:52:44;8.30;;;6.00;;
5587;SDS011;2816;49.778;9.986;2023-06-26T07:55:11;12.90;;;5.97;;
5587;SDS011;2816;49.778;9.986;2023-06-26T07:57:38;10.13;;;7.10;;
5587;SDS011;2816;49.778;9.986;2023-06-26T08:00:07;6.23;;;5.47;;
5587;SDS011;2816;49.778;9.986;2023-06-26T08:02:35;18.60;;;6.60;;
5587;SDS011;2816;49.778;9.986;2023-06-26T08:05:02;6.67;;;5.40;;
5587;SDS011;2816;49.778;9.986;2023-06-26T08:07:29;12.03;;;6.80;;
5587;SDS011;2816;49.778;9.986;2023-06-26T08:09:56;6.60;;;5.90;;
5587;SDS011;2816;49.778;9.986;2023-06-26T08:12:23;11.60;;;6.50;;
5587;SDS011;2816;49.778;9.986;2023-06-26T08:14:49;9.57;;;6.70;;
5587;SDS011;2816;49.778;9.986;2023-06-26T08:17:18;10.00;;;6.60;;
5587;SDS011;2816;49.778;9.986;2023-06-26T08:19:45;7.27;;;6.00;;
5587;SDS011;2816;49.778;9.986;2023-06-26T08:22:11;9.93;;;6.83;;
5587;SDS011;2816;49.778;9.986;2023-06-26T08:24:38;8.47;;;6.90;;
5587;SDS011;2816;49.778;9.986;2023-06-26T08:27:05;13.53;;;6.30;;
5587;SDS011;2816;49.778;9.986;2023-06-26T08:29:33;16.70;;;7.20;;
5587;SDS011;2816;49.778;9.986;2023-06-26T08:32:00;9.00;;;6.80;;
5587;SDS011;2816;49.778;9.986;2023-06-26T08:34:29;11.77;;;6.70;;
5587;SDS011;2816;49.778;9.986;2023-06-26T08:36:56;8.67;;;6.57;;
5587;SDS011;2816;49.778;9.986;2023-06-26T08:39:23;11.70;;;6.43;;
5587;SDS011;2816;49.778;9.986;2023-06-26T08:41:50;14.43;;;6.80;;
5587;SDS011;2816;49.778;9.986;2023-06-26T08:44:18;7.50;;;6.10;;
5587;SDS011;2816;49.778;9.986;2023-06-26T08:46:50;9.20;;;6.90;;
5587;SDS011;2816;49.778;9.986;2023-06-26T08:49:18;7.27;;;6.50;;
5587;SDS011;2816;49.778;9.986;2023-06-26T08:51:51;9.73;;;6.10;;
5587;SDS011;2816;49.778;9.986;2023-06-26T08:54:22;7.00;;;6.30;;
5587;SDS011;2816;49.778;9.986;2023-06-26T08:56:54;9.03;;;6.40;;
5587;SDS011;2816;49.778;9.986;2023-06-26T08:59:23;11.10;;;6.47;;
5587;SDS011;2816;49.778;9.986;2023-06-26T09:01:50;7.60;;;6.50;;
5587;SDS011;2816;49.778;9.986;2023-06-26T09:04:17;13.53;;;7.27;;
5587;SDS011;2816;49.778;9.986;2023-06-26T09:06:44;6.83;;;5.93;;
5587;SDS011;2816;49.778;9.986;2023-06-26T09:09:12;10.40;;;5.80;;
5587;SDS011;2816;49.778;9.986;2023-06-26T09:11:40;11.43;;;5.67;;
5587;SDS011;2816;49.778;9.986;2023-06-26T09:14:06;8.80;;;6.40;;
5587;SDS011;2816;49.778;9.986;2023-06-26T09:16:39;7.20;;;6.50;;
5587;SDS011;2816;49.778;9.986;2023-06-26T09:19:08;7.93;;;6.17;;
5587;SDS011;2816;49.778;9.986;2023-06-26T09:21:37;7.40;;;5.80;;
5587;SDS011;2816;49.778;9.986;2023-06-26T09:24:04;7.93;;;5.77;;
5587;SDS011;2816;49.778;9.986;2023-06-26T09:26:35;6.70;;;5.83;;
5587;SDS011;2816;49.778;9.986;2023-06-26T09:29:03;9.83;;;5.60;;
5587;SDS011;2816;49.778;9.986;2023-06-26T09:31:31;10.47;;;6.10;;
5587;SDS011;2816;49.778;9.986;2023-06-26T09:34:01;6.10;;;5.50;;
5587;SDS011;2816;49.778;9.986;2023-06-26T09:36:38;6.33;;;5.73;;
5587;SDS011;2816;49.778;9.986;2023-06-26T09:39:07;9.47;;;6.00;;
5587;SDS011;2816;49.778;9.986;2023-06-26T09:41:36;7.90;;;5.43;;
5587;SDS011;2816;49.778;9.986;2023-06-26T09:44:05;7.03;;;5.77;;
5587;SDS011;2816;49.778;9.986;2023-06-26T09:46:32;7.87;;;5.70;;
5587;SDS011;2816;49.778;9.986;2023-06-26T09:49:03;6.10;;;5.50;;
5587;SDS011;2816;49.778;9.986;2023-06-26T09:51:30;7.33;;;5.20;;
5587;SDS011;2816;49.778;9.986;2023-06-26T09:54:03;5.60;;;4.97;;
5587;SDS011;2816;49.778;9.986;2023-06-26T09:56:32;6.33;;;5.00;;
5587;SDS011;2816;49.778;9.986;2023-06-26T09:59:00;5.60;;;4.83;;
5587;SDS011;2816;49.778;9.986;2023-06-26T10:01:28;5.10;;;4.57;;
5587;SDS011;2816;49.778;9.986;2023-06-26T10:03:55;5.10;;;4.50;;
5587;SDS011;2816;49.778;9.986;2023-06-26T10:06:24;7.30;;;5.37;;
5587;SDS011;2816;49.778;9.986;2023-06-26T10:08:53;9.03;;;5.07;;
5587;SDS011;2816;49.778;9.986;2023-06-26T10:11:25;5.50;;;4.60;;
5587;SDS011;2816;49.778;9.986;2023-06-26T10:13:56;6.10;;;4.50;;
5587;SDS011;2816;49.778;9.986;2023-06-26T10:16:26;5.30;;;4.80;;
5587;SDS011;2816;49.778;9.986;2023-06-26T10:18:56;7.03;;;5.20;;
5587;SDS011;2816;49.778;9.986;2023-06-26T10:21:27;5.60;;;4.67;;
5587;SDS011;2816;49.778;9.986;2023-06-26T10:23:57;4.30;;;3.93;;
5587;SDS011;2816;49.778;9.986;2023-06-26T10:26:26;6.30;;;4.67;;
5587;SDS011;2816;49.778;9.986;2023-06-26T10:28:54;6.80;;;4.60;;
5587;SDS011;2816;49.778;9.986;2023-06-26T10:31:23;7.03;;;5.40;;
5587;SDS011;2816;49.778;9.986;2023-06-26T10:33:52;5.40;;;4.73;;
5587;SDS011;2816;49.778;9.986;2023-06-26T10:36:20;5.70;;;5.10;;
5587;SDS011;2816;49.778;9.986;2023-06-26T10:38:55;7.60;;;4.47;;
5587;SDS011;2816;49.778;9.986;2023-06-26T10:41:25;8.50;;;4.17;;
5587;SDS011;2816;49.778;9.986;2023-06-26T10:44:05;9.07;;;4.30;;
5587;SDS011;2816;49.778;9.986;2023-06-26T10:46:33;6.23;;;4.50;;
5587;SDS011;2816;49.778;9.986;2023-06-26T10:49:14;5.50;;;4.53;;
5587;SDS011;2816;49.778;9.986;2023-06-26T10:51:45;5.53;;;4.33;;
5587;SDS011;2816;49.778;9.986;2023-06-26T10:54:14;5.97;;;4.60;;
5587;SDS011;2816;49.778;9.986;2023-06-26T10:56:44;5.43;;;4.87;;
5587;SDS011;2816;49.778;9.986;2023-06-26T10:59:15;5.00;;;4.50;;
5587;SDS011;2816;49.778;9.986;2023-06-26T11:01:44;4.70;;;4.30;;
5587;SDS011;2816;49.778;9.986;2023-06-26T11:04:12;8.50;;;4.23;;
5587;SDS011;2816;49.778;9.986;2023-06-26T11:06:41;5.27;;;4.43;;
5587;SDS011;2816;49.778;9.986;2023-06-26T11:09:13;4.90;;;4.50;;
5587;SDS011;2816;49.778;9.986;2023-06-26T11:12:01;5.07;;;4.57;;
5587;SDS011;2816;49.778;9.986;2023-06-26T11:14:31;6.23;;;4.63;;
5587;SDS011;2816;49.778;9.986;2023-06-26T11:16:58;6.00;;;5.00;;
5587;SDS011;2816;49.778;9.986;2023-06-26T11:19:28;6.43;;;4.33;;
5587;SDS011;2816;49.778;9.986;2023-06-26T11:21:57;8.07;;;4.87;;
5587;SDS011;2816;49.778;9.986;2023-06-26T11:24:29;9.80;;;5.13;;
5587;SDS011;2816;49.778;9.986;2023-06-26T11:27:01;9.80;;;4.80;;
5587;SDS011;2816;49.778;9.986;2023-06-26T11:29:29;5.30;;;4.47;;
5587;SDS011;2816;49.778;9.986;2023-06-26T11:32:00;5.00;;;4.60;;
5587;SDS011;2816;49.778;9.986;2023-06-26T11:34:30;5.60;;;4.87;;
5587;SDS011;2816;49.778;9.986;2023-06-26T11:36:57;5.43;;;4.93;;
5587;SDS011;2816;49.778;9.986;2023-06-26T11:39:26;5.00;;;4.50;;
5587;SDS011;2816;49.778;9.986;2023-06-26T11:41:53;7.10;;;5.13;;
5587;SDS011;2816;49.778;9.986;2023-06-26T11:44:21;5.50;;;4.90;;
5587;SDS011;2816;49.778;9.986;2023-06-26T11:46:51;5.50;;;4.80;;
5587;SDS011;2816;49.778;9.986;2023-06-26T11:49:20;9.00;;;4.87;;
5587;SDS011;2816;49.778;9.986;2023-06-26T11:51:50;5.80;;;4.20;;
5587;SDS011;2816;49.778;9.986;2023-06-26T11:54:22;6.23;;;4.77;;
5587;SDS011;2816;49.778;9.986;2023-06-26T11:56:54;5.20;;;4.70;;
5587;SDS011;2816;49.778;9.986;2023-06-26T11:59:24;10.93;;;5.10;;
5587;SDS011;2816;49.778;9.986;2023-06-26T12:01:59;5.27;;;4.77;;
5587;SDS011;2816;49.778;9.986;2023-06-26T12:04:26;6.63;;;4.57;;
5587;SDS011;2816;49.778;9.986;2023-06-26T12:06:53;5.30;;;4.40;;
5587;SDS011;2816;49.778;9.986;2023-06-26T12:09:23;4.60;;;4.20;;
5587;SDS011;2816;49.778;9.986;2023-06-26T12:11:51;10.03;;;4.80;;
5587;SDS011;2816;49.778;9.986;2023-06-26T12:14:20;5.70;;;4.70;;
5587;SDS011;2816;49.778;9.986;2023-06-26T12:16:50;5.67;;;4.53;;
5587;SDS011;2816;49.778;9.986;2023-06-26T12:19:23;5.80;;;4.73;;
5587;SDS011;2816;49.778;9.986;2023-06-26T12:21:51;6.37;;;4.70;;
5587;SDS011;2816;49.778;9.986;2023-06-26T12:24:19;6.57;;;4.77;;
5587;SDS011;2816;49.778;9.986;2023-06-26T12:26:47;7.60;;;5.17;;
5587;SDS011;2816;49.778;9.986;2023-06-26T12:29:18;7.80;;;5.30;;
5587;SDS011;2816;49.778;9.986;2023-06-26T12:31:50;5.20;;;4.53;;
5587;SDS011;2816;49.778;9.986;2023-06-26T12:34:19;10.00;;;5.10;;
5587;SDS011;2816;49.778;9.986;2023-06-26T12:36:48;6.90;;;4.73;;
5587;SDS011;2816;49.778;9.986;2023-06-26T12:39:15;7.83;;;5.10;;
5587;SDS011;2816;49.778;9.986;2023-06-26T12:41:44;7.10;;;5.23;;
5587;SDS011;2816;49.778;9.986;2023-06-26T12:44:18;6.57;;;4.73;;
5587;SDS011;2816;49.778;9.986;2023-06-26T12:46:46;5.77;;;5.27;;
5587;SDS011;2816;49.778;9.986;2023-06-26T12:49:16;10.43;;;5.30;;
5587;SDS011;2816;49.778;9.986;2023-06-26T12:51:44;6.93;;;5.40;;
5587;SDS011;2816;49.778;9.986;2023-06-26T12:54:11;6.93;;;5.53;;
5587;SDS011;2816;49.778;9.986;2023-06-26T12:56:38;6.30;;;5.67;;
5587;SDS011;2816;49.778;9.986;2023-06-26T12:59:05;13.70;;;6.10;;
5587;SDS011;2816;49.778;9.986;2023-06-26T13:01:32;7.27;;;5.70;;
5587;SDS011;2816;49.778;9.986;2023-06-26T13:03:59;6.87;;;5.93;;
5587;SDS011;2816;49.778;9.986;2023-06-26T13:06:27;6.87;;;6.20;;
5587;SDS011;2816;49.778;9.986;2023-06-26T13:08:54;8.90;;;5.73;;
5587;SDS011;2816;49.778;9.986;2023-06-26T13:11:21;10.93;;;5.80;;
5587;SDS011;2816;49.778;9.986;2023-06-26T13:13:48;9.70;;;6.10;;
5587;SDS011;2816;49.778;9.986;2023-06-26T13:16:15;8.43;;;5.63;;
5587;SDS011;2816;49.778;9.986;2023-06-26T13:18:43;8.67;;;5.50;;
5587;SDS011;2816;49.778;9.986;2023-06-26T13:21:10;6.37;;;5.37;;
5587;SDS011;2816;49.778;9.986;2023-06-26T13:23:39;7.23;;;5.63;;
5587;SDS011;2816;49.778;9.986;2023-06-26T13:26:06;5.97;;;5.40;;
5587;SDS011;2816;49.778;9.986;2023-06-26T13:28:33;8.07;;;4.93;;
5587;SDS011;2816;49.778;9.986;2023-06-26T13:31:00;8.60;;;5.53;;
5587;SDS011;2816;49.778;9.986;2023-06-26T13:33:27;7.43;;;5.30;;
5587;SDS011;2816;49.778;9.986;2023-06-26T13:35:53;7.57;;;5.63;;
5587;SDS011;2816;49.778;9.986;2023-06-26T13:38:20;5.60;;;5.10;;
5587;SDS011;2816;49.778;9.986;2023-06-26T13:40:51;6.07;;;5.07;;
5587;SDS011;2816;49.778;9.986;2023-06-26T13:43:20;6.60;;;5.40;;
5587;SDS011;2816;49.778;9.986;2023-06-26T13:45:48;5.63;;;5.10;;
5587;SDS011;2816;49.778;9.986;2023-06-26T13:48:15;7.20;;;5.47;;
5587;SDS011;2816;49.778;9.986;2023-06-26T13:50:42;7.53;;;5.60;;
5587;SDS011;2816;49.778;9.986;2023-06-26T13:53:09;5.90;;;5.30;;
5587;SDS011;2816;49.778;9.986;2023-06-26T13:55:35;9.70;;;6.00;;
5587;SDS011;2816;49.778;9.986;2023-06-26T13:58:04;9.13;;;5.70;;
5587;SDS011;2816;49.778;9.986;2023-06-26T14:00:31;18.13;;;6.00;;
5587;SDS011;2816;49.778;9.986;2023-06-26T14:02:59;7.13;;;5.73;;
5587;SDS011;2816;49.778;9.986;2023-06-26T14:05:28;6.60;;;5.80;;
5587;SDS011;2816;49.778;9.986;2023-06-26T14:07:54;6.17;;;4.93;;
5587;SDS011;2816;49.778;9.986;2023-06-26T14:10:22;18.17;;;5.57;;
5587;SDS011;2816;49.778;9.986;2023-06-26T14:12:50;9.83;;;5.50;;
5587;SDS011;2816;49.778;9.986;2023-06-26T14:15:18;6.40;;;5.50;;
5587;SDS011;2816;49.778;9.986;2023-06-26T14:17:45;8.60;;;5.30;;
5587;SDS011;2816;49.778;9.986;2023-06-26T14:20:15;5.70;;;5.10;;
5587;SDS011;2816;49.778;9.986;2023-06-26T14:22:42;11.70;;;5.77;;
5587;SDS011;2816;49.778;9.986;2023-06-26T14:25:10;6.13;;;4.80;;
5587;SDS011;2816;49.778;9.986;2023-06-26T14:27:37;5.83;;;5.23;;
5587;SDS011;2816;49.778;9.986;2023-06-26T14:30:05;7.43;;;5.00;;
5587;SDS011;2816;49.778;9.986;2023-06-26T14:32:35;7.30;;;4.90;;
5587;SDS011;2816;49.778;9.986;2023-06-26T14:35:02;7.90;;;4.90;;
5587;SDS011;2816;49.778;9.986;2023-06-26T14:37:30;6.10;;;4.23;;
5587;SDS011;2816;49.778;9.986;2023-06-26T14:39:57;4.90;;;4.50;;
5587;SDS011;2816;49.778;9.986;2023-06-26T14:42:24;5.30;;;4.80;;
5587;SDS011;2816;49.778;9.986;2023-06-26T14:44:51;5.77;;;5.07;;
5587;SDS011;2816;49.778;9.986;2023-06-26T14:47:18;7.30;;;5.63;;
5587;SDS011;2816;49.778;9.986;2023-06-26T14:49:46;10.63;;;5.60;;
5587;SDS011;2816;49.778;9.986;2023-06-26T14:52:13;5.13;;;4.57;;
5587;SDS011;2816;49.778;9.986;2023-06-26T14:54:39;6.70;;;4.80;;
5587;SDS011;2816;49.778;9.986;2023-06-26T14:57:06;6.90;;;4.80;;
5587;SDS011;2816;49.778;9.986;2023-06-26T14:59:34;8.57;;;5.57;;
5587;SDS011;2816;49.778;9.986;2023-06-26T15:02:00;5.80;;;4.83;;
5587;SDS011;2816;49.778;9.986;2023-06-26T15:04:27;6.60;;;4.83;;
5587;SDS011;2816;49.778;9.986;2023-06-26T15:06:56;5.60;;;4.80;;
5587;SDS011;2816;49.778;9.986;2023-06-26T15:09:23;10.63;;;4.90;;
5587;SDS011;2816;49.778;9.986;2023-06-26T15:11:50;15.30;;;4.97;;
5587;SDS011;2816;49.778;9.986;2023-06-26T15:14:17;8.53;;;5.00;;
5587;SDS011;2816;49.778;9.986;2023-06-26T15:16:44;7.73;;;5.20;;
5587;SDS011;2816;49.778;9.986;2023-06-26T15:19:11;14.67;;;5.70;;
5587;SDS011;2816;49.778;9.986;2023-06-26T15:21:38;12.57;;;5.53;;